Grand Canyon Village, AZ

4:56 PM MST en Septiembre 30, 2014 (GMT -0700)
KAZGRAND3 | Change Station
CLOSE
Current Station
Estación meteorológica personal
Location: Grand Canyon, AZ
Altura: 6991 ft
Estaciones meteorológicas cercanas

Alt 6991 ft 36.05 °N, 112.12 °W | Updated 1 second ago

Despejado
Despejado
62.3 ° F
Sensación térmica 62.3 ° F
N
0.0
Viento Variable Viento desde NNO
Gusts 0.0 mph

Hoy
Alta -- | Baja -- ° F
--% Posibilidad de precipitaciones
Ayer
Alta -- | Baja -- ° F
Precip. -- pul
6:22 AM 6:13 PM
Creciente, 41% visible
Presión 29.87 pul
Visibilidad 10.0 Millas
Nubes Despejado
Punto de rocío 34 ° F
Humedad 35%
Precipitaciones 0.00 pul
Espesor de la nieve 0 in , 0 in , 0 in
UV 3 de una escala de 12
Polen 5.70 de una escala de 12
Calidad del aire No disponible.
Flu Activity No disponible.
METAR KGCN 302254Z 22008KT 10SM CLR 19/02 A3003 RMK AO2 SLP113 T01890022

More Conditions Fewer Conditions

Presión 29.87 pul
Visibilidad 10.0 Millas
Nubes Despejado
Punto de rocío 34 ° F
Humedad 35%
Precipitaciones 0.00 pul
Espesor de la nieve 0 in , 0 in , 0 in
UV 3 de una escala de 12
Polen 5.70 de una escala de 12
Calidad del aire No disponible.
Flu Activity No disponible.
METAR KGCN 302254Z 22008KT 10SM CLR 19/02 A3003 RMK AO2 SLP113 T01890022

More Conditions Fewer Conditions

10-Day Weather Forecast

Almanac

Astronomía

Sep. 30, 2014 Salida Puesta
Hora real 6:22 AM MST 6:13 PM MST
Crepúsculo civil 5:57 AM MST 6:38 PM MST
Crepúsculo náutico 5:27 AM MST 7:08 PM MST
Crepúsculo astronómico 4:57 AM MST 7:38 PM MST
Luna 12:26 PM MST 10:55 PM MST
Horas de luz 12h 41m
Horas de luz
11h 50m
Tomorrow will be 2m 15s shorter.
Creciente, 41% of the Moon is Illuminated
Hoy
Creciente
Oct 1
Cuarto creciente
Oct 8
Luna llena
Oct 15
Cuarto menguante
Oct 23
Nueva

Extremos de hoy

Máximos del estado Bajos del estado

Community

WunderPhotos

Upload Photos

1,757,785 ¡fotos cargadas!

Nearby

Grosos de nieve

Estación Profundido Altura
Workman Creek 0 in 6900 ft
Beaver Head 0 in 7990 ft
Mormon Mountain 0 in 7500 ft

Actividad de terremotos

Ciudad Distance Mag. Tiempo y dato
No hay informes recientes de la actividad sísmica.
Magnitud mínima muestra es 2,5.

Temperaturas de aguas costeras

Lugar Temperatura
Sin partes meteorológicos de las estaciones

Estaciones meteorológicas cercanas